Time;durP1;ratioP1;P1;durP2;ratioP2;P2;SDS_P1;SDS_P2;PMS_P1;PMS_P2;Temp;Humidity;BMP_temperature;BMP_pressure;BME280_temperature;BME280_humidity;BME280_pressure;Samples;Min_cycle;Max_cycle;Signal;HPM_P1;HPM_P2
2022/12/24 00:01:39;;;;;;;33.50;21.80;;;;;;;2.74;100.00;96963.84;107713;1266;71374;-67
2022/12/24 00:04:09;;;;;;;37.60;21.80;;;;;;;2.76;100.00;96972.31;107668;1269;69800;-67
2022/12/24 00:06:39;;;;;;;31.10;20.60;;;;;;;2.78;100.00;96975.83;107633;1265;67362;-67
2022/12/24 00:09:09;;;;;;;28.80;19.60;;;;;;;2.80;100.00;96969.52;107736;1268;59711;-67
2022/12/24 00:11:39;;;;;;;32.50;18.50;;;;;;;2.82;100.00;96971.00;107754;1269;59769;-69
2022/12/24 00:14:08;;;;;;;32.80;19.40;;;;;;;2.84;100.00;96977.08;107706;1268;71877;-68
2022/12/24 00:16:38;;;;;;;36.80;22.50;;;;;;;2.87;100.00;96975.05;107764;1268;68271;-68
2022/12/24 00:19:07;;;;;;;38.30;22.40;;;;;;;2.89;100.00;96980.95;107664;1269;70285;-67
2022/12/24 00:21:37;;;;;;;35.40;20.50;;;;;;;2.90;100.00;96982.47;107777;1268;59782;-68
2022/12/24 00:24:07;;;;;;;36.90;21.70;;;;;;;2.91;100.00;96983.11;107717;1269;59708;-67
2022/12/24 00:26:37;;;;;;;48.20;28.70;;;;;;;2.91;100.00;96980.17;107824;1266;70392;-66
2022/12/24 00:29:06;;;;;;;44.10;28.80;;;;;;;2.91;100.00;96975.36;107617;1266;69412;-67
2022/12/24 00:31:35;;;;;;;43.70;25.90;;;;;;;2.91;100.00;96969.86;107673;1266;69309;-67
2022/12/24 00:34:04;;;;;;;39.20;24.20;;;;;;;2.92;100.00;96969.11;107752;1269;59788;-67
2022/12/24 00:36:34;;;;;;;38.60;24.00;;;;;;;2.93;100.00;96970.77;107614;1269;59728;-67
2022/12/24 00:39:03;;;;;;;38.80;24.50;;;;;;;2.94;100.00;96966.79;107648;1268;70608;-68
2022/12/24 00:41:32;;;;;;;34.40;21.30;;;;;;;2.96;100.00;96970.66;107731;1266;69358;-68
2022/12/24 00:44:08;;;;;;;35.60;21.70;;;;;;;2.97;100.00;96965.95;107755;1267;69183;-67
2022/12/24 00:46:40;;;;;;;30.90;18.40;;;;;;;2.98;100.00;96963.30;107695;1266;59742;-68
2022/12/24 00:49:11;;;;;;;29.70;19.20;;;;;;;2.99;100.00;96968.03;107713;1269;59708;-68
2022/12/24 00:51:41;;;;;;;29.60;19.40;;;;;;;3.00;100.00;96965.08;107713;1270;70486;-69
2022/12/24 00:54:12;;;;;;;33.50;19.20;;;;;;;3.01;100.00;96959.55;107780;1264;69214;-68
2022/12/24 00:56:42;;;;;;;29.50;19.80;;;;;;;2.99;100.00;96958.61;107717;1269;67661;-67
2022/12/24 00:59:11;;;;;;;34.10;20.40;;;;;;;2.97;100.00;96960.64;107647;1269;59703;-68
2022/12/24 01:01:41;;;;;;;35.60;22.40;;;;;;;2.94;100.00;96960.75;107703;1265;59708;-68
2022/12/24 01:07:00;;;;;;;34.00;21.20;;;;;;;2.87;100.00;96961.44;107481;1266;69315;-68
2022/12/24 01:09:29;;;;;;;36.20;21.70;;;;;;;2.82;100.00;96967.19;107657;1269;68784;-68
2022/12/24 01:11:59;;;;;;;40.10;23.80;;;;;;;2.78;100.00;96966.18;107607;1266;59751;-68
2022/12/24 01:14:29;;;;;;;31.00;18.70;;;;;;;2.74;100.00;96968.48;107734;1259;59755;-67
2022/12/24 01:16:59;;;;;;;33.30;18.50;;;;;;;2.70;100.00;96970.04;107701;1269;71076;-67
2022/12/24 01:19:30;;;;;;;29.70;19.50;;;;;;;2.68;100.00;96969.59;107688;1269;69249;-68
2022/12/24 01:22:00;;;;;;;36.90;21.40;;;;;;;2.66;100.00;96972.11;107715;1269;68267;-68
2022/12/24 01:24:30;;;;;;;33.70;21.20;;;;;;;2.64;100.00;96976.17;107707;1260;59671;-67
2022/12/24 01:26:59;;;;;;;33.40;20.40;;;;;;;2.61;100.00;96973.19;107569;1269;59761;-68
2022/12/24 01:29:28;;;;;;;36.70;20.90;;;;;;;2.58;100.00;96972.69;107576;1269;71365;-68
2022/12/24 01:31:58;;;;;;;34.70;21.00;;;;;;;2.55;100.00;96975.20;107623;1264;69198;-68
2022/12/24 01:34:27;;;;;;;29.10;19.60;;;;;;;2.52;100.00;96969.85;107720;1269;69928;-68
2022/12/24 01:36:57;;;;;;;30.00;18.70;;;;;;;2.49;100.00;96967.58;107697;1260;59725;-68
2022/12/24 01:39:27;;;;;;;28.90;16.30;;;;;;;2.46;100.00;96967.20;107761;1269;59727;-68
2022/12/24 01:44:47;;;;;;;26.10;17.10;;;;;;;2.43;100.00;96963.23;107675;1260;69038;-67
2022/12/24 01:47:25;;;;;;;34.60;20.90;;;;;;;2.39;100.00;96963.05;107659;1265;69688;-67
2022/12/24 01:49:58;;;;;;;30.30;19.10;;;;;;;2.36;100.00;96962.19;107662;1259;59705;-67
2022/12/24 01:52:34;;;;;;;34.40;19.10;;;;;;;2.29;100.00;96962.98;107657;1266;59772;-68
2022/12/24 01:55:15;;;;;;;41.50;26.00;;;;;;;2.21;100.00;96959.27;107674;1269;71436;-67
2022/12/24 01:57:50;;;;;;;39.00;23.80;;;;;;;2.13;100.00;96955.70;107726;1264;68421;-67
2022/12/24 02:00:21;;;;;;;34.70;21.30;;;;;;;2.04;100.00;96952.67;107646;1269;68441;-68
2022/12/24 02:02:51;;;;;;;;;;;;;;;1.97;100.00;96948.52;107664;1269;59783;-67
2022/12/24 02:05:39;;;;;;;25.00;15.00;;;;;;;1.92;100.00;96945.84;107682;1257;59661;-67
2022/12/24 02:08:09;;;;;;;29.00;18.20;;;;;;;1.87;100.00;96943.98;107722;1266;70389;-67
2022/12/24 02:10:39;;;;;;;34.00;22.20;;;;;;;1.81;100.00;96945.63;107725;1268;68447;-69
2022/12/24 02:13:11;;;;;;;44.40;26.50;;;;;;;1.75;100.00;96945.24;107735;1266;69490;-68
2022/12/24 02:16:04;;;;;;;33.80;20.40;;;;;;;1.66;100.00;96938.05;107171;1268;756343;-68
2022/12/24 02:18:37;;;;;;;33.60;21.80;;;;;;;1.57;100.00;96933.51;107852;1265;59709;-67
2022/12/24 02:21:23;;;;;;;40.60;24.20;;;;;;;1.48;100.00;96933.70;107861;1268;72041;-67
2022/12/24 02:24:00;;;;;;;38.30;24.30;;;;;;;1.39;100.00;96935.67;107733;1266;68572;-67
2022/12/24 02:26:45;;;;;;;36.50;23.10;;;;;;;1.31;100.00;96931.04;107739;1266;69294;-67
2022/12/24 02:29:25;;;;;;;33.50;20.40;;;;;;;1.22;100.00;96923.70;107720;1270;59781;-67
2022/12/24 02:31:57;;;;;;;28.70;18.60;;;;;;;1.15;100.00;96920.40;107700;1266;59743;-67
2022/12/24 02:34:44;;;;;;;33.30;20.50;;;;;;;1.10;100.00;96916.66;107706;1264;71432;-68
2022/12/24 02:37:14;;;;;;;36.30;20.40;;;;;;;1.04;100.00;96917.09;107616;1270;69232;-67
2022/12/24 02:39:56;;;;;;;37.60;20.50;;;;;;;0.98;100.00;96925.08;107663;1266;68449;-67
2022/12/24 02:42:34;;;;;;;37.70;21.60;;;;;;;0.92;100.00;96926.00;107652;1269;59743;-67
2022/12/24 02:45:10;;;;;;;36.60;19.40;;;;;;;0.86;100.00;96927.10;107673;1265;59735;-68
2022/12/24 02:47:43;;;;;;;32.30;19.00;;;;;;;0.82;100.00;96934.13;107711;1266;71031;-67
2022/12/24 02:50:16;;;;;;;40.60;24.20;;;;;;;0.79;100.00;96932.72;107740;1269;68095;-67
2022/12/24 02:52:47;;;;;;;37.30;21.50;;;;;;;0.75;100.00;96934.27;107726;1269;69883;-67
2022/12/24 02:55:54;;;;;;;32.50;19.20;;;;;;;0.72;100.00;96931.65;107716;1269;59776;-68
2022/12/24 02:58:33;;;;;;;31.00;18.30;;;;;;;0.64;100.00;96929.71;107654;1265;59736;-67
2022/12/24 03:01:36;;;;;;;35.60;21.40;;;;;;;0.58;100.00;96932.20;107750;1260;71262;-67
2022/12/24 03:04:38;;;;;;;31.80;18.60;;;;;;;0.53;100.00;96934.49;107671;1264;69084;-67
2022/12/24 03:07:33;;;;;;;38.40;19.50;;;;;;;0.46;100.00;96937.66;107618;1269;69927;-67
2022/12/24 03:10:24;;;;;;;52.30;24.20;;;;;;;0.39;100.00;96941.19;107694;1269;59767;-67
2022/12/24 03:12:58;;;;;;;49.30;28.90;;;;;;;0.36;100.00;96940.82;107664;1269;59734;-67
2022/12/24 03:15:30;;;;;;;43.20;25.20;;;;;;;0.35;100.00;96941.03;107632;1266;71380;-67
2022/12/24 03:18:02;;;;;;;47.20;24.50;;;;;;;0.36;100.00;96939.10;107659;1269;69054;-67
2022/12/24 03:20:40;;;;;;;48.60;23.00;;;;;;;0.40;100.00;96942.70;107663;1269;69307;-67
2022/12/24 03:23:11;;;;;;;54.50;27.20;;;;;;;0.45;100.00;96952.27;107670;1265;59703;-67
2022/12/24 03:25:43;;;;;;;45.00;24.40;;;;;;;0.48;100.00;96960.19;107674;1270;59706;-67
2022/12/24 03:28:15;;;;;;;48.80;25.70;;;;;;;0.51;100.00;96959.25;107625;1268;71566;-68
2022/12/24 03:30:47;;;;;;;45.90;23.30;;;;;;;0.52;100.00;96948.93;107631;1269;68732;-67
2022/12/24 03:33:17;;;;;;;40.50;20.40;;;;;;;0.55;100.00;96946.23;107657;1265;68580;-67
2022/12/24 03:35:47;;;;;;;50.20;25.70;;;;;;;0.57;100.00;96946.85;107699;1268;59723;-67
2022/12/24 03:38:17;;;;;;;45.90;25.10;;;;;;;0.56;100.00;96945.17;107696;1266;59754;-67
2022/12/24 03:40:47;;;;;;;53.10;28.30;;;;;;;0.56;100.00;96949.61;107615;1266;71431;-67
2022/12/24 03:43:18;;;;;;;45.70;25.00;;;;;;;0.60;100.00;96954.41;107673;1264;69226;-67
2022/12/24 03:45:48;;;;;;;40.70;23.30;;;;;;;0.63;100.00;96948.65;107676;1267;69773;-67
2022/12/24 03:48:17;;;;;;;40.90;23.00;;;;;;;0.68;100.00;96952.38;107667;1265;59783;-67
2022/12/24 03:50:47;;;;;;;41.50;21.40;;;;;;;0.74;100.00;96955.40;107683;1266;59712;-68
2022/12/24 03:53:17;;;;;;;50.10;24.70;;;;;;;0.81;100.00;96950.30;107688;1269;72002;-66
2022/12/24 03:55:48;;;;;;;44.70;22.90;;;;;;;0.90;100.00;96945.78;107692;1266;68414;-68
2022/12/24 03:58:17;;;;;;;38.60;21.20;;;;;;;0.99;100.00;96945.78;107627;1269;68495;-67
2022/12/24 04:00:48;;;;;;;42.60;22.40;;;;;;;1.08;100.00;96940.96;107696;1264;59725;-67
2022/12/24 04:03:18;;;;;;;41.40;21.10;;;;;;;1.14;100.00;96938.79;107681;1269;59680;-67
2022/12/24 04:05:47;;;;;;;38.70;19.70;;;;;;;1.21;100.00;96940.20;107692;1266;71300;-67
2022/12/24 04:08:17;;;;;;;35.80;20.00;;;;;;;1.25;100.00;96931.27;107691;1269;69098;-67
2022/12/24 04:10:47;;;;;;;45.50;23.20;;;;;;;1.32;100.00;96935.80;107635;1267;69277;-67
2022/12/24 04:13:16;;;;;;;37.30;20.70;;;;;;;1.35;100.00;96937.05;107583;1266;59737;-67
2022/12/24 04:15:58;;;;;;;39.20;20.90;;;;;;;1.37;100.00;96939.02;107637;1269;59735;-67
2022/12/24 04:18:29;;;;;;;40.20;24.40;;;;;;;1.38;100.00;96934.33;107661;1266;70814;-67
2022/12/24 04:20:58;;;;;;;;;;;;;;;1.38;100.00;96933.61;107693;1261;69931;-68
2022/12/24 04:23:33;;;;;;;41.60;21.90;;;;;;;1.39;100.00;96934.11;107665;1269;67560;-69
2022/12/24 04:26:05;;;;;;;34.00;19.90;;;;;;;1.40;100.00;96936.80;107662;1269;59694;-68
2022/12/24 04:28:36;;;;;;;37.00;23.20;;;;;;;1.43;100.00;96936.02;107709;1265;59689;-67
2022/12/24 04:31:07;;;;;;;43.60;24.00;;;;;;;1.46;100.00;96932.95;107694;1264;71290;-67
2022/12/24 04:33:37;;;;;;;35.70;20.50;;;;;;;1.48;100.00;96930.78;107684;1269;69896;-67
2022/12/24 04:36:08;;;;;;;31.60;17.30;;;;;;;1.50;100.00;96931.89;107707;1265;68298;-68
2022/12/24 04:38:37;;;;;;;35.10;20.60;;;;;;;1.50;100.00;96932.25;107683;1265;59683;-67
2022/12/24 04:41:14;;;;;;;33.60;20.80;;;;;;;1.50;100.00;96929.50;107722;1266;59717;-67
2022/12/24 04:43:54;;;;;;;34.80;21.50;;;;;;;1.50;100.00;96927.26;107703;1265;71778;-67
2022/12/24 04:46:29;;;;;;;41.30;22.50;;;;;;;1.50;100.00;96928.46;107627;1269;69137;-67
2022/12/24 04:48:59;;;;;;;36.40;22.00;;;;;;;1.59;100.00;96928.24;107693;1265;69086;-67
2022/12/24 04:51:28;;;;;;;42.60;21.20;;;;;;;1.65;100.00;96926.25;107646;1266;59701;-67
2022/12/24 04:53:58;;;;;;;39.20;23.00;;;;;;;1.70;100.00;96917.98;107626;1266;59789;-67
2022/12/24 04:56:31;;;;;;;38.90;21.60;;;;;;;1.77;100.00;96912.45;107649;1265;71472;-67
2022/12/24 04:59:01;;;;;;;38.60;21.40;;;;;;;1.85;100.00;96915.03;107690;1259;69244;-67
2022/12/24 05:01:32;;;;;;;40.60;21.70;;;;;;;1.98;100.00;96910.98;107750;1269;68464;-67
2022/12/24 05:04:01;;;;;;;37.20;19.80;;;;;;;2.01;100.00;96909.84;107668;1269;59748;-67
2022/12/24 05:06:32;;;;;;;34.90;18.00;;;;;;;2.04;100.00;96912.11;107695;1269;59782;-67
2022/12/24 05:09:01;;;;;;;29.80;17.60;;;;;;;2.08;100.00;96917.26;107680;1265;70639;-67
2022/12/24 05:11:31;;;;;;;30.00;15.90;;;;;;;2.10;100.00;96919.38;107756;1269;68289;-67
2022/12/24 05:14:00;;;;;;;29.60;16.40;;;;;;;2.12;100.00;96922.38;107768;1264;67785;-67
2022/12/24 05:16:30;;;;;;;27.20;15.80;;;;;;;2.13;100.00;96925.44;107939;1257;59770;-68
2022/12/24 05:19:00;;;;;;;26.40;16.50;;;;;;;2.16;100.00;96929.25;107925;1265;59739;-68
2022/12/24 05:21:29;;;;;;;26.70;14.90;;;;;;;2.20;100.00;96920.83;107846;1266;70899;-67
2022/12/24 05:26:50;;;;;;;37.70;21.00;;;;;;;2.25;100.00;96922.29;107771;1264;68180;-67
2022/12/24 05:29:20;;;;;;;29.30;19.00;;;;;;;2.23;100.00;96918.77;107674;1266;59681;-67
2022/12/24 05:31:49;;;;;;;31.20;18.90;;;;;;;2.22;100.00;96920.20;107781;1265;60189;-67
2022/12/24 05:34:18;;;;;;;29.60;17.20;;;;;;;2.22;100.00;96920.55;107745;1266;72012;-67
2022/12/24 05:36:47;;;;;;;24.50;15.70;;;;;;;2.21;100.00;96919.02;107827;1259;69334;-67
2022/12/24 05:39:17;;;;;;;30.40;17.10;;;;;;;2.20;100.00;96920.65;107734;1269;69811;-67
2022/12/24 05:41:47;;;;;;;28.00;16.30;;;;;;;2.18;100.00;96920.39;107786;1265;59669;-67
2022/12/24 05:44:18;;;;;;;24.90;15.20;;;;;;;2.19;100.00;96917.45;107728;1266;59728;-67
2022/12/24 05:46:47;;;;;;;27.90;15.80;;;;;;;2.22;100.00;96917.13;107743;1269;71654;-68
2022/12/24 05:49:17;;;;;;;23.90;14.80;;;;;;;2.25;100.00;96915.89;107727;1262;68479;-67
2022/12/24 05:51:46;;;;;;;28.20;16.20;;;;;;;2.29;100.00;96917.64;107771;1260;69273;-67
2022/12/24 05:54:15;;;;;;;23.10;15.10;;;;;;;2.34;100.00;96913.95;107711;1259;59737;-67
2022/12/24 05:56:44;;;;;;;24.30;15.50;;;;;;;2.39;100.00;96912.50;107833;1264;59632;-67
2022/12/24 05:59:13;;;;;;;25.00;15.80;;;;;;;2.44;100.00;96914.49;107731;1268;70931;-67
2022/12/24 06:01:46;;;;;;;25.70;16.30;;;;;;;2.47;100.00;96915.39;107839;1265;69164;-67
2022/12/24 06:04:15;;;;;;;23.90;15.90;;;;;;;2.48;100.00;96914.98;107738;1255;69267;-66
2022/12/24 06:06:44;;;;;;;24.80;16.50;;;;;;;2.49;100.00;96917.36;107691;1259;59728;-67
2022/12/24 06:09:14;;;;;;;25.00;15.40;;;;;;;2.49;100.00;96916.48;107781;1256;59734;-67
2022/12/24 06:11:43;;;;;;;24.50;15.90;;;;;;;2.50;100.00;96917.83;107831;1260;71401;-67
2022/12/24 06:14:12;;;;;;;26.80;16.40;;;;;;;2.51;100.00;96913.32;107829;1259;69701;-67
2022/12/24 06:16:41;;;;;;;29.00;18.20;;;;;;;2.53;100.00;96910.45;107620;1265;69262;-67
2022/12/24 06:19:11;;;;;;;28.90;18.40;;;;;;;2.55;100.00;96906.05;107748;1262;59786;-67
2022/12/24 06:21:40;;;;;;;39.40;25.30;;;;;;;2.58;100.00;96901.44;107729;1269;59697;-67
2022/12/24 06:24:09;;;;;;;37.80;24.00;;;;;;;2.59;100.00;96898.64;107622;1269;71388;-67
2022/12/24 06:26:38;;;;;;;33.20;21.20;;;;;;;2.62;100.00;96895.73;107734;1269;68655;-67
2022/12/24 06:29:07;;;;;;;38.30;25.20;;;;;;;2.64;100.00;96895.48;107721;1269;69971;-67
2022/12/24 06:31:36;;;;;;;32.40;21.00;;;;;;;2.65;100.00;96892.50;107668;1256;59764;-67
2022/12/24 06:34:04;;;;;;;27.70;17.00;;;;;;;2.68;100.00;96890.80;107725;1265;59782;-67
2022/12/24 06:36:34;;;;;;;29.80;18.60;;;;;;;2.71;100.00;96888.92;107672;1260;71372;-68
2022/12/24 06:39:03;;;;;;;31.00;20.00;;;;;;;2.74;100.00;96888.61;107747;1268;69216;-67
2022/12/24 06:41:32;;;;;;;29.20;19.00;;;;;;;2.76;100.00;96887.27;107640;1265;69900;-67
2022/12/24 06:44:01;;;;;;;29.40;18.10;;;;;;;2.78;100.00;96886.16;107661;1265;59709;-67
2022/12/24 06:46:30;;;;;;;29.50;18.40;;;;;;;2.81;100.00;96889.14;107794;1265;59722;-67
2022/12/24 06:49:00;;;;;;;25.30;18.00;;;;;;;2.84;100.00;96885.20;107745;1268;71474;-67
2022/12/24 06:51:28;;;;;;;27.80;17.80;;;;;;;2.87;100.00;96878.83;107688;1266;68266;-67
2022/12/24 06:53:57;;;;;;;31.30;19.80;;;;;;;2.91;100.00;96872.60;107608;1269;69773;-67
2022/12/24 06:56:26;;;;;;;27.70;20.00;;;;;;;2.95;100.00;96870.16;107672;1265;59767;-67
2022/12/24 06:58:55;;;;;;;31.50;21.60;;;;;;;2.97;100.00;96877.63;107646;1268;59687;-67
2022/12/24 07:01:32;;;;;;;35.80;21.90;;;;;;;3.00;100.00;96880.41;107735;1269;71384;-67
2022/12/24 07:04:01;;;;;;;48.90;25.90;;;;;;;3.01;100.00;96877.92;107675;1268;69179;-67
2022/12/24 07:06:31;;;;;;;28.00;17.50;;;;;;;3.06;100.00;96870.30;107659;1265;69764;-67
2022/12/24 07:09:00;;;;;;;22.80;16.50;;;;;;;3.10;100.00;96871.67;107823;1264;59704;-67
2022/12/24 07:11:29;;;;;;;22.10;14.60;;;;;;;3.14;100.00;96865.92;107728;1265;59703;-67
2022/12/24 07:13:57;;;;;;;29.60;20.70;;;;;;;3.17;100.00;96862.12;107698;1265;72097;-67
2022/12/24 07:16:26;;;;;;;33.60;21.90;;;;;;;3.20;100.00;96861.66;107709;1265;69048;-67
2022/12/24 07:18:55;;;;;;;33.80;23.80;;;;;;;3.24;100.00;96860.42;107688;1269;68364;-67
2022/12/24 07:21:24;;;;;;;33.60;23.10;;;;;;;3.27;100.00;96858.01;107850;1255;59693;-67
2022/12/24 07:23:52;;;;;;;26.80;19.80;;;;;;;3.30;100.00;96855.77;107734;1256;59733;-67
2022/12/24 07:26:21;;;;;;;28.00;19.60;;;;;;;3.35;100.00;96852.29;107666;1269;71972;-67
2022/12/24 07:28:51;;;;;;;30.10;19.80;;;;;;;3.38;100.00;96846.75;107755;1260;69550;-66
2022/12/24 07:31:20;;;;;;;32.00;22.70;;;;;;;3.43;100.00;96844.61;107677;1266;69157;-66
2022/12/24 07:33:49;;;;;;;27.90;19.50;;;;;;;3.46;100.00;96842.70;107645;1266;59755;-67
2022/12/24 07:36:20;;;;;;;29.90;20.20;;;;;;;3.50;100.00;96843.52;107791;1268;59761;-67
2022/12/24 07:38:51;;;;;;;25.50;17.50;;;;;;;3.54;100.00;96842.79;107696;1266;70467;-67
2022/12/24 07:41:20;;;;;;;26.10;19.60;;;;;;;3.59;100.00;96841.67;107641;1259;69316;-67
2022/12/24 07:43:49;;;;;;;32.40;21.00;;;;;;;3.62;100.00;96842.75;107669;1266;68586;-67
2022/12/24 07:46:17;;;;;;;29.90;20.40;;;;;;;3.64;100.00;96840.71;107750;1269;59756;-67
2022/12/24 07:48:46;;;;;;;32.70;20.90;;;;;;;3.68;100.00;96836.37;107675;1255;59653;-67
2022/12/24 07:51:15;;;;;;;28.80;18.40;;;;;;;3.70;100.00;96835.55;107735;1269;70756;-68
2022/12/24 07:53:46;;;;;;;31.10;20.50;;;;;;;3.75;100.00;96839.11;107669;1265;69056;-67
2022/12/24 07:56:16;;;;;;;30.80;20.70;;;;;;;3.78;100.00;96839.94;107675;1269;69935;-68
2022/12/24 07:58:45;;;;;;;33.90;22.50;;;;;;;3.82;100.00;96838.84;107742;1264;59764;-68
2022/12/24 08:01:14;;;;;;;27.30;18.00;;;;;;;3.86;100.00;96837.29;107633;1269;59701;-68
2022/12/24 08:03:43;;;;;;;28.90;20.00;;;;;;;3.89;100.00;96836.05;107737;1267;70694;-68
2022/12/24 08:06:12;;;;;;;30.20;20.60;;;;;;;3.94;100.00;96837.67;107727;1269;69839;-68
2022/12/24 08:08:42;;;;;;;21.40;15.00;;;;;;;3.99;100.00;96838.27;107764;1265;69489;-68
2022/12/24 08:11:11;;;;;;;21.40;14.30;;;;;;;4.04;100.00;96841.42;107791;1266;59740;-69
2022/12/24 08:13:40;;;;;;;23.60;16.30;;;;;;;4.08;100.00;96832.23;107738;1263;59664;-69
2022/12/24 08:16:09;;;;;;;24.30;16.30;;;;;;;4.13;100.00;96831.63;107738;1269;70900;-68
2022/12/24 08:18:38;;;;;;;19.90;14.10;;;;;;;4.17;100.00;96835.40;107744;1269;69166;-68
2022/12/24 08:21:07;;;;;;;38.80;23.20;;;;;;;4.21;100.00;96833.95;107741;1265;68775;-69
2022/12/24 08:23:36;;;;;;;51.90;30.20;;;;;;;4.26;100.00;96837.64;107737;1265;59708;-68
2022/12/24 08:26:07;;;;;;;37.60;23.20;;;;;;;4.31;100.00;96842.83;107730;1264;59730;-68
2022/12/24 08:28:36;;;;;;;30.70;18.10;;;;;;;4.36;100.00;96841.55;107736;1269;71338;-68
2022/12/24 08:31:05;;;;;;;25.60;16.30;;;;;;;4.40;100.00;96841.32;107599;1265;69195;-68
2022/12/24 08:33:34;;;;;;;25.40;16.40;;;;;;;4.42;100.00;96843.06;107780;1269;69646;-68
2022/12/24 08:36:03;;;;;;;24.40;17.30;;;;;;;4.45;100.00;96842.21;107676;1266;59742;-69
2022/12/24 08:38:32;;;;;;;27.30;20.50;;;;;;;4.51;100.00;96844.80;107705;1262;59717;-68
2022/12/24 08:41:00;;;;;;;30.20;22.20;;;;;;;4.58;100.00;96846.67;107703;1265;71375;-68
2022/12/24 08:43:29;;;;;;;31.10;23.10;;;;;;;4.63;100.00;96846.19;107710;1266;69819;-68
2022/12/24 08:46:03;;;;;;;27.70;18.80;;;;;;;4.68;100.00;96843.35;107668;1269;68834;-68
2022/12/24 08:48:33;;;;;;;27.50;18.70;;;;;;;4.74;100.00;96841.94;107692;1266;59802;-68
2022/12/24 08:51:09;;;;;;;25.30;18.70;;;;;;;4.78;100.00;96834.93;107675;1269;59747;-68
2022/12/24 08:53:38;;;;;;;27.60;20.70;;;;;;;4.82;100.00;96829.00;107688;1269;71269;-68
2022/12/24 08:56:09;;;;;;;25.30;17.70;;;;;;;4.87;100.00;96830.33;107726;1264;68373;-69
2022/12/24 08:58:38;;;;;;;23.30;17.50;;;;;;;4.92;100.00;96829.30;107659;1269;67318;-68
2022/12/24 09:01:15;;;;;;;26.80;19.60;;;;;;;4.98;100.00;96827.06;107687;1266;59718;-68
2022/12/24 09:03:45;;;;;;;28.70;19.40;;;;;;;5.02;100.00;96826.77;107788;1260;59743;-68
2022/12/24 09:06:14;;;;;;;23.40;17.60;;;;;;;5.06;100.00;96826.23;107817;1266;71901;-68
2022/12/24 09:08:43;;;;;;;25.40;18.20;;;;;;;5.13;100.00;96826.32;107731;1265;69799;-68
2022/12/24 09:11:15;;;;;;;23.90;16.20;;;;;;;5.18;100.00;96827.94;107772;1268;68385;-67
2022/12/24 09:13:44;;;;;;;23.40;18.00;;;;;;;5.23;100.00;96831.07;107694;1268;59794;-67
2022/12/24 09:16:13;;;;;;;25.10;17.40;;;;;;;5.22;100.00;96837.02;107682;1265;59729;-68
2022/12/24 09:18:41;;;;;;;53.70;31.30;;;;;;;5.22;100.00;96836.00;107772;1268;70914;-68
2022/12/24 09:21:13;;;;;;;33.30;19.50;;;;;;;5.21;100.00;96830.13;107695;1265;69635;-67
2022/12/24 09:23:44;;;;;;;28.30;18.30;;;;;;;5.22;100.00;96830.83;107821;1255;68337;-67
2022/12/24 09:26:21;;;;;;;23.90;15.20;;;;;;;5.21;100.00;96824.78;107711;1266;59781;-67
2022/12/24 09:28:50;;;;;;;26.80;19.80;;;;;;;5.20;100.00;96829.02;107748;1266;59658;-68
2022/12/24 09:31:20;;;;;;;26.60;18.00;;;;;;;5.18;100.00;96819.81;107729;1269;71974;-68
2022/12/24 09:33:50;;;;;;;26.80;19.80;;;;;;;5.16;100.00;96824.92;107841;1259;69686;-68
2022/12/24 09:36:20;;;;;;;31.10;21.70;;;;;;;5.13;100.00;96828.39;107878;1256;69800;-68
2022/12/24 09:38:49;;;;;;;26.40;19.70;;;;;;;5.13;100.00;96815.28;107735;1269;59771;-68
2022/12/24 09:41:23;;;;;;;29.70;21.20;;;;;;;5.12;100.00;96819.82;107731;1269;60123;-68
2022/12/24 09:43:59;;;;;;;36.90;24.30;;;;;;;5.10;100.00;96810.79;107694;1265;69806;-68
2022/12/24 09:46:34;;;;;;;55.40;37.40;;;;;;;5.08;100.00;96816.08;107649;1269;69234;-68
2022/12/24 09:49:09;;;;;;;51.10;36.70;;;;;;;5.06;100.00;96818.81;107619;1269;69893;-68
2022/12/24 09:51:46;;;;;;;63.40;44.10;;;;;;;5.08;100.00;96818.67;107673;1267;59682;-68
2022/12/24 09:54:40;;;;;;;46.60;32.80;;;;;;;5.15;100.00;96810.13;107698;1265;59714;-68
2022/12/24 09:57:27;;;;;;;41.90;29.80;;;;;;;5.21;100.00;96812.91;107643;1266;71405;-67
2022/12/24 09:59:56;;;;;;;52.50;36.60;;;;;;;5.24;100.00;96815.80;107688;1269;69713;-67
2022/12/24 10:02:25;;;;;;;46.60;34.60;;;;;;;5.27;100.00;96820.67;107675;1267;68543;-67
2022/12/24 10:04:55;;;;;;;34.90;24.90;;;;;;;5.29;100.00;96812.72;107668;1269;59764;-67
2022/12/24 10:07:30;;;;;;;41.10;29.20;;;;;;;5.29;100.00;96812.37;107667;1265;59731;-67
2022/12/24 10:10:15;;;;;;;33.40;24.00;;;;;;;5.32;100.00;96811.70;107700;1269;70581;-67
2022/12/24 10:13:06;;;;;;;36.60;25.00;;;;;;;5.35;100.00;96813.39;107677;1266;69191;-68
2022/12/24 10:15:43;;;;;;;41.30;30.50;;;;;;;5.37;100.00;96811.72;107648;1269;69271;-68
2022/12/24 10:18:31;;;;;;;37.30;27.10;;;;;;;5.42;100.00;96812.79;107673;1265;59689;-68
2022/12/24 10:21:20;;;;;;;33.30;25.90;;;;;;;5.48;100.00;96812.80;107689;1269;59708;-68
2022/12/24 10:24:24;;;;;;;29.80;20.00;;;;;;;5.52;100.00;96808.23;107677;1269;70416;-68
2022/12/24 10:27:02;;;;;;;27.90;19.70;;;;;;;5.58;100.00;96813.70;107542;1266;68358;-69
2022/12/24 10:29:36;;;;;;;29.50;21.60;;;;;;;5.54;100.00;96811.52;107664;1269;69869;-68
2022/12/24 10:32:07;;;;;;;27.90;20.00;;;;;;;5.51;100.00;96816.23;107659;1262;59706;-69
2022/12/24 10:34:43;;;;;;;27.40;19.90;;;;;;;5.54;100.00;96810.31;107625;1269;59739;-67
2022/12/24 10:37:27;;;;;;;29.00;21.20;;;;;;;5.56;100.00;96814.02;107814;1269;72071;-67
2022/12/24 10:39:58;;;;;;;31.90;21.70;;;;;;;5.56;100.00;96812.77;107746;1269;69175;-67
2022/12/24 10:42:43;;;;;;;24.80;18.10;;;;;;;5.60;100.00;96820.13;107715;1269;69122;-67
2022/12/24 10:45:25;;;;;;;27.20;18.80;;;;;;;5.61;100.00;96822.38;107699;1269;59757;-68
2022/12/24 10:48:05;;;;;;;29.10;19.30;;;;;;;5.56;100.00;96828.31;107703;1265;59706;-68
2022/12/24 10:50:41;;;;;;;23.50;19.00;;;;;;;5.60;100.00;96825.88;107734;1269;71206;-68
2022/12/24 10:53:36;;;;;;;25.70;19.20;;;;;;;5.56;100.00;96832.66;107719;1269;69044;-68
2022/12/24 10:56:10;;;;;;;24.30;17.20;;;;;;;5.52;100.00;96834.86;107675;1269;69344;-68
2022/12/24 10:58:50;;;;;;;20.40;15.10;;;;;;;5.54;100.00;96841.06;107694;1269;59824;-68
2022/12/24 11:01:40;;;;;;;22.40;14.80;;;;;;;5.54;100.00;96842.48;107641;1268;59732;-68
2022/12/24 11:04:14;;;;;;;;;;;;;;;5.51;100.00;96843.84;107679;1269;72397;-68
2022/12/24 11:07:00;;;;;;;24.80;18.40;;;;;;;5.52;100.00;96840.67;107692;1269;67511;-68
2022/12/24 11:09:32;;;;;;;25.00;18.10;;;;;;;5.52;100.00;96842.09;107655;1269;70287;-69
2022/12/24 11:12:15;;;;;;;26.50;19.70;;;;;;;5.53;100.00;96840.80;107711;1269;59798;-68
2022/12/24 11:14:44;;;;;;;25.50;18.60;;;;;;;5.53;100.00;96840.30;107704;1265;59782;-69
2022/12/24 11:17:22;;;;;;;29.30;19.40;;;;;;;5.54;100.00;96846.92;107712;1265;72035;-69
2022/12/24 11:19:50;;;;;;;26.30;19.50;;;;;;;5.58;100.00;96846.88;107706;1265;68795;-69
2022/12/24 11:22:28;;;;;;;24.90;18.70;;;;;;;5.61;100.00;96850.55;107685;1269;69884;-69
2022/12/24 11:25:17;;;;;;;26.00;18.70;;;;;;;5.61;100.00;96851.00;107683;1268;59766;-68
2022/12/24 11:27:51;;;;;;;23.70;17.70;;;;;;;5.64;100.00;96855.54;107691;1269;59737;-69
2022/12/24 11:30:22;;;;;;;25.40;18.20;;;;;;;5.69;100.00;96851.63;107660;1265;71023;-69
2022/12/24 11:33:17;;;;;;;23.00;17.00;;;;;;;5.73;100.00;96862.75;107672;1266;68872;-69
2022/12/24 11:35:50;;;;;;;20.60;16.20;;;;;;;5.77;100.00;96855.75;107673;1265;69394;-69
2022/12/24 11:38:22;;;;;;;27.50;20.40;;;;;;;5.81;100.00;96860.86;107656;1265;59747;-67
2022/12/24 11:41:11;;;;;;;28.90;19.50;;;;;;;5.82;100.00;96863.55;107632;1270;59668;-67
2022/12/24 11:43:47;;;;;;;23.60;16.90;;;;;;;5.88;100.00;96865.45;107688;1265;71332;-68